Current Conditions

Updated: 06-May-2017 09:33 AM  
Summary / Temperature Wind Rain






Feels like: 59°F

1-hour difference
2.1°F 2.1°F warmer than last hour.

24-hour difference
13.0°F13.0°F colder than yesterday at this time.

  Today Yesterday
High: 66.4°F
12:00 AM
87.8°F
1:51 PM
Low: 55.4°F
6:33 AM
63.2°F
5:19 AM
Wind from WNW WNW
0.7
Gust:  1.0 mph
0 Beaufort - Calm

Today: 6.0 - 1:20 AM
Month: 7.0 mph - May 4
Rain Today: 0.00 in
Current Rate (/hr): 0.000 in
Max Rate (/hr):
Rain Yesterday: 0.00 in
Storm Rain: 0.00 in
This Month: 0.00 in
Season Total: 11.61 in
Last Rain Event: 17 days ago
Humidity / Barometer Sun / Moon
Humidity: 61 Decreased 2.0% in the last hour.
Dew Point: 45.8°F Increased 1.1°F in the last hour.
Barometer: 29.775 inHg  
Baro Trend: Steady
Sunrise: 5:57 AM
Sunset: 7:47 PM
Moonrise: 4:09 PM
Moonset: 3:58 AM
Sky Conditions UV Index
Summary: Clear
Visibility: 10 miles
Clouds: None
KVIS - 12:56 AM PDT
Current: 0.0  None 
Saturday: 11.0  Extreme 
Sunday: 11.2  Extreme 
Air Quality Fire Danger
 Moderate 
Ozone 40 ppb
PM 2.5 14 μg/m3
1:40 AM PDT
Current: 8  Low 

Local Alerts Local Forecast
Local NWS Alerts
Today

Mostly
Sunny
High 102
Tonight

Mostly
Clear
Low 68
Sun

Sunny

High 102
Sun night

Clear

Low 66
Mon

Sunny

High 99
Mon night

Clear

Low 63
Tue

Sunny

High 95

Local Radar Local Satellite Neighborhood Cam Sky Cam
Local Radar Local Satellite Neighborhood Cam Sky Cam


Nearby Personal Stations

Weather Underground PWS KCAEXETE7     Weather Underground PWS KCAEXETE6     Weather Underground PWS KCAEXETE11

Nearby Airport Stations

KVIS - Visalia, California, USA
Distance from station: NW 27mi, 43km
Updated: Sat, 24-Jun-2017 12:56am PDT
Clear
Clear
 Wind from W
Wind: W 5 mph , 7 km/h
Temperature: 81°F , 27°C
Heat Index: 83°F , 28°C
Dew Point: 64°F , 18°C
Humidity: 58%
Barometer: 29.82 inHg , 1009.8 hPa
Clouds: Clear
Visibility: 10 miles , 16 km
2017/06/24 07:56 KVIS 240756Z AUTO 28004KT 10SM CLR 27/18 A2982 RMK AO2 SLP100 T02720183 404060222
KPTV - Porterville, California, USA
Distance from station: SSW 4mi, 7km
Updated: Sat, 24-Jun-2017 12:56am PDT

 Wind from S
Wind: S 5 mph , 7 km/h
Temperature: 81°F , 27°C
Heat Index: 83°F , 28°C
Dew Point: 66°F , 19°C
Humidity: 62%
Barometer: 29.84 inHg , 1010.5 hPa
Visibility: 10 miles , 16 km
2017/06/24 07:56 KPTV 240756Z AUTO 17004KT 10SM 27/19 A2984 RMK AO2 SLP106 T02670194 $

Metar display script from Saratoga-Weather.org



Visitor Map